Time;durP1;ratioP1;P1;durP2;ratioP2;P2;SDS_P1;SDS_P2;PMS_P1;PMS_P2;Temp;Humidity;BMP_temperature;BMP_pressure;BME280_temperature;BME280_humidity;BME280_pressure;Samples;Min_cycle;Max_cycle;Signal;HPM_P1;HPM_P2
2022/06/09 00:01:01;;;;;;;10.95;1.40;;;;;;;14.37;90.71;100026.66;4955537;29;20406;-72
2022/06/09 00:04:16;;;;;;;4.35;1.10;;;;;;;14.44;90.44;100035.72;4955417;29;20126;-72
2022/06/09 00:07:21;;;;;;;11.43;1.85;;;;;;;14.35;90.82;100049.56;4955325;29;20054;-72
2022/06/09 00:10:31;;;;;;;7.30;1.35;;;;;;;14.36;90.70;100049.47;4954729;29;20041;-71
2022/06/09 00:13:35;;;;;;;6.38;1.40;;;;;;;14.34;91.00;100053.19;4954888;29;20057;-71
2022/06/09 00:16:38;;;;;;;5.75;1.45;;;;;;;14.43;90.68;100058.56;4955329;29;20083;-71
2022/06/09 00:19:41;;;;;;;5.88;1.10;;;;;;;14.47;90.15;100053.09;4955221;29;20126;-71
2022/06/09 00:22:45;;;;;;;7.93;1.30;;;;;;;14.42;90.34;100056.03;4943168;29;20110;-71
2022/06/09 00:25:48;;;;;;;;;;;;;;;14.39;90.09;100054.50;4955384;29;20077;-72
2022/06/09 00:28:51;;;;;;;;;;;;;;;14.61;89.29;100058.16;4955439;29;19925;-71
2022/06/09 00:31:54;;;;;;;3.22;1.00;;;;;;;14.71;88.52;100063.53;4954876;28;19921;-72
2022/06/09 00:34:57;;;;;;;7.90;1.33;;;;;;;14.64;88.72;100058.78;4954928;29;20062;-71
2022/06/09 00:38:01;;;;;;;7.47;1.05;;;;;;;14.42;90.04;100059.53;4954630;29;20046;-71
2022/06/09 00:41:04;;;;;;;3.33;1.00;;;;;;;14.25;90.82;100067.00;4954623;28;20098;-71
2022/06/09 00:44:20;;;;;;;6.88;1.30;;;;;;;14.28;90.91;100066.78;4954725;29;20181;-71
2022/06/09 00:47:32;;;;;;;4.72;1.02;;;;;;;14.38;90.22;100063.34;4954472;29;20050;-71
2022/06/09 00:50:38;;;;;;;14.10;1.20;;;;;;;14.46;89.81;100065.41;4954360;29;20057;-71
2022/06/09 00:53:43;;;;;;;5.55;1.15;;;;;;;14.37;89.90;100071.34;4954684;29;20065;-71
2022/06/09 00:56:53;;;;;;;5.93;1.08;;;;;;;14.25;90.78;100077.53;4954682;29;20472;-71
2022/06/09 01:00:02;;;;;;;5.47;0.80;;;;;;;14.37;89.99;100077.44;4954335;29;20078;-71
2022/06/09 01:03:06;;;;;;;5.78;0.95;;;;;;;14.38;89.80;100080.91;4954696;29;20144;-71
2022/06/09 01:06:16;;;;;;;9.88;1.17;;;;;;;14.36;89.64;100093.34;4954289;29;20465;-71
2022/06/09 01:09:22;;;;;;;4.35;0.90;;;;;;;14.31;89.95;100090.22;4954367;29;20050;-71
2022/06/09 01:12:35;;;;;;;5.22;1.33;;;;;;;14.36;89.51;100085.47;4953576;29;20417;-71
2022/06/09 01:16:21;;;;;;;8.02;0.90;;;;;;;14.35;89.63;100083.78;4954361;29;20469;-71
2022/06/09 01:19:43;;;;;;;5.18;0.73;;;;;;;14.18;90.81;100083.25;4953979;29;20138;-71
2022/06/09 01:23:21;;;;;;;5.35;0.80;;;;;;;14.24;90.31;100091.63;4954189;29;20046;-71
2022/06/09 01:26:57;;;;;;;6.65;0.93;;;;;;;14.30;90.17;100091.19;4951544;29;20057;-71
2022/06/09 01:30:38;;;;;;;8.55;1.05;;;;;;;14.22;90.39;100098.78;4953484;29;20070;-71
2022/06/09 01:33:50;;;;;;;3.88;0.80;;;;;;;14.23;90.08;100098.69;4950153;28;20053;-71
2022/06/09 01:37:15;;;;;;;10.30;1.77;;;;;;;14.08;90.95;100100.66;4953701;29;20137;-71
2022/06/09 01:40:19;;;;;;;12.27;1.48;;;;;;;14.16;90.32;100106.16;4953633;29;20058;-71
2022/06/09 01:43:22;;;;;;;4.18;0.82;;;;;;;14.17;90.28;100102.59;4954005;29;20062;-72
2022/06/09 01:46:34;;;;;;;6.95;0.90;;;;;;;14.15;90.24;100099.25;4953700;29;20054;-71
2022/06/09 01:49:38;;;;;;;3.38;0.77;;;;;;;14.08;90.70;100097.19;4953693;29;20102;-72
2022/06/09 01:52:42;;;;;;;8.18;0.85;;;;;;;14.04;90.89;100096.59;4952895;29;20097;-71
2022/06/09 01:55:55;;;;;;;9.88;1.23;;;;;;;14.11;90.58;100097.81;4953826;29;20109;-71
2022/06/09 01:59:06;;;;;;;8.85;1.23;;;;;;;13.94;90.78;100099.06;4953689;29;20057;-71
2022/06/09 02:02:16;;;;;;;5.13;1.17;;;;;;;13.98;91.17;100101.47;4953761;29;20182;-71
2022/06/09 02:05:34;;;;;;;6.13;1.15;;;;;;;13.92;91.12;100102.72;4953433;29;20098;-71
2022/06/09 02:08:37;;;;;;;6.00;1.00;;;;;;;13.83;91.50;100108.66;4953893;29;20501;-71
2022/06/09 02:11:54;;;;;;;8.45;1.45;;;;;;;13.71;91.77;100103.31;4952797;29;20117;-71
2022/06/09 02:14:59;;;;;;;5.30;0.95;;;;;;;13.65;91.53;100089.78;4953442;29;20418;-71
2022/06/09 02:18:12;;;;;;;6.10;1.35;;;;;;;13.55;91.98;100100.13;4952549;29;20054;-71
2022/06/09 02:21:25;;;;;;;4.72;1.08;;;;;;;13.69;90.81;100105.25;4953488;29;20054;-71
2022/06/09 02:24:27;;;;;;;22.08;2.22;;;;;;;13.77;89.67;100109.94;4953685;29;20050;-71
2022/06/09 02:27:31;;;;;;;9.02;0.98;;;;;;;13.84;88.79;100115.56;4953417;29;20054;-71
2022/06/09 02:30:36;;;;;;;5.80;1.38;;;;;;;13.89;88.24;100118.72;4953373;29;20038;-71
2022/06/09 02:33:39;;;;;;;7.90;1.25;;;;;;;13.68;88.76;100116.69;4953144;28;20055;-71
2022/06/09 02:36:43;;;;;;;9.60;1.17;;;;;;;13.72;88.02;100112.91;4953311;29;20046;-71
2022/06/09 02:39:46;;;;;;;11.23;1.38;;;;;;;13.67;88.21;100117.63;4953079;29;20159;-71
2022/06/09 02:42:49;;;;;;;7.18;1.75;;;;;;;13.81;87.46;100121.06;4953394;29;20151;-72
2022/06/09 02:45:53;;;;;;;10.05;1.58;;;;;;;13.88;87.29;100127.53;4953450;29;20050;-71
2022/06/09 02:48:57;;;;;;;7.00;1.75;;;;;;;13.67;88.05;100124.69;4953232;29;20042;-71
2022/06/09 02:52:00;;;;;;;7.32;2.13;;;;;;;13.80;87.28;100122.84;4953425;29;20146;-71
2022/06/09 02:55:04;;;;;;;10.30;1.70;;;;;;;13.78;87.46;100127.38;4953280;29;20135;-71
2022/06/09 02:58:08;;;;;;;7.95;1.83;;;;;;;13.51;88.61;100137.22;4962609;28;20098;-71
2022/06/09 03:01:11;;;;;;;10.15;1.55;;;;;;;13.56;89.01;100143.84;4953067;29;20182;-71
2022/06/09 03:04:14;;;;;;;8.10;1.50;;;;;;;13.69;88.20;100144.66;4953314;28;20102;-71
2022/06/09 03:07:18;;;;;;;6.85;1.60;;;;;;;13.59;88.08;100148.03;4956601;29;20066;-71
2022/06/09 03:10:22;;;;;;;8.98;1.20;;;;;;;13.64;88.07;100149.38;4955993;29;20107;-71
2022/06/09 03:13:25;;;;;;;12.32;1.50;;;;;;;13.67;87.75;100151.78;4956392;29;20093;-71
2022/06/09 03:16:28;;;;;;;9.60;1.60;;;;;;;13.49;88.03;100159.16;4956221;29;20081;-71
2022/06/09 03:19:32;;;;;;;8.18;1.23;;;;;;;13.49;87.46;100140.78;4955445;29;20094;-71
2022/06/09 03:22:35;;;;;;;;;;;;;;;13.44;87.75;100145.53;4956872;29;20525;-71
2022/06/09 03:25:38;;;;;;;16.20;1.75;;;;;;;13.38;88.35;100140.72;4956136;29;19945;-71
2022/06/09 03:28:42;;;;;;;7.10;1.20;;;;;;;13.37;88.59;100156.56;4956166;29;20090;-71
2022/06/09 03:31:46;;;;;;;9.75;1.90;;;;;;;13.46;88.15;100143.66;4956053;29;20105;-71
2022/06/09 03:34:49;;;;;;;12.32;1.83;;;;;;;13.35;89.10;100153.22;4955200;29;20512;-71
2022/06/09 03:37:52;;;;;;;11.30;1.63;;;;;;;13.28;89.39;100154.59;4955940;29;20101;-71
2022/06/09 03:40:56;;;;;;;10.18;1.40;;;;;;;13.35;88.73;100155.84;4943871;29;20519;-72
2022/06/09 03:44:00;;;;;;;13.07;1.50;;;;;;;13.46;87.90;100163.81;4952679;28;20054;-72
2022/06/09 03:47:03;;;;;;;8.23;1.52;;;;;;;13.53;87.28;100165.06;4611136;28;9999980;-71
2022/06/09 03:50:12;;;;;;;11.63;1.38;;;;;;;13.52;86.93;100173.88;4952370;29;20046;-70
2022/06/09 03:53:15;;;;;;;11.05;1.27;;;;;;;13.44;87.47;100187.56;4952389;29;20106;-72
2022/06/09 03:56:21;;;;;;;9.23;1.75;;;;;;;13.47;87.84;100197.03;4952323;29;20112;-70
2022/06/09 03:59:25;;;;;;;11.05;1.52;;;;;;;13.42;88.36;100199.13;4951636;29;20382;-72
2022/06/09 04:02:28;;;;;;;9.35;1.70;;;;;;;13.42;88.51;100193.84;4952161;29;20058;-70
2022/06/09 04:05:32;;;;;;;7.07;1.35;;;;;;;13.42;88.93;100201.75;4952287;29;20142;-70
2022/06/09 04:08:36;;;;;;;7.30;1.60;;;;;;;13.61;88.11;100204.75;4952009;29;20421;-70
2022/06/09 04:11:39;;;;;;;11.23;1.98;;;;;;;13.82;87.29;100212.09;4950845;29;20082;-71
2022/06/09 04:14:43;;;;;;;4.18;1.17;;;;;;;13.79;87.50;100214.94;4951690;29;20058;-73
2022/06/09 04:17:47;;;;;;;11.35;1.55;;;;;;;13.94;87.09;100216.47;4962807;28;20081;-70
2022/06/09 04:20:50;;;;;;;5.60;1.40;;;;;;;13.83;87.15;100224.28;4954907;29;20145;-72
2022/06/09 04:23:54;;;;;;;6.93;1.23;;;;;;;13.80;87.89;100221.88;4953182;29;20114;-70
2022/06/09 04:26:57;;;;;;;8.73;1.30;;;;;;;13.65;88.69;100221.97;4955451;29;20105;-70
2022/06/09 04:30:00;;;;;;;11.18;2.25;;;;;;;13.75;87.01;100227.44;4954516;29;20046;-71
2022/06/09 04:33:03;;;;;;;8.35;1.60;;;;;;;13.70;87.44;100226.94;4954635;28;20098;-71
2022/06/09 04:36:08;;;;;;;6.80;1.20;;;;;;;13.78;87.45;100226.38;4954737;29;20519;-70
2022/06/09 04:39:12;;;;;;;6.97;1.38;;;;;;;13.84;86.51;100233.84;4954654;29;20109;-70
2022/06/09 04:42:15;;;;;;;8.63;1.42;;;;;;;13.77;87.28;100248.38;4942879;29;20143;-70
2022/06/09 04:45:19;;;;;;;8.52;1.67;;;;;;;13.96;86.37;100238.22;4954805;29;20053;-71
2022/06/09 04:48:23;;;;;;;9.98;1.40;;;;;;;13.90;85.01;100236.88;4953231;29;20075;-70
2022/06/09 04:51:27;;;;;;;9.63;1.73;;;;;;;13.82;84.72;100235.75;4954744;29;20094;-73
2022/06/09 04:54:30;;;;;;;10.52;1.70;;;;;;;13.88;84.28;100238.78;4954741;29;20214;-71
2022/06/09 04:57:34;;;;;;;8.07;1.50;;;;;;;13.60;84.75;100244.28;4954504;29;20134;-70
2022/06/09 05:00:38;;;;;;;11.60;1.75;;;;;;;13.80;84.74;100248.16;4954550;29;20047;-70
2022/06/09 05:03:42;;;;;;;7.90;1.58;;;;;;;13.49;85.72;100250.25;4954741;29;20186;-71
2022/06/09 05:06:46;;;;;;;13.30;2.55;;;;;;;13.46;85.25;100255.72;4954852;29;20513;-70
2022/06/09 05:09:50;;;;;;;17.08;2.78;;;;;;;13.52;84.70;100255.31;4954538;29;20042;-70
2022/06/09 05:12:54;;;;;;;9.70;1.30;;;;;;;13.73;84.28;100269.59;4954178;29;20046;-70
2022/06/09 05:15:58;;;;;;;9.43;1.42;;;;;;;13.65;84.01;100271.91;4954359;29;20457;-70
2022/06/09 05:19:02;;;;;;;7.72;1.60;;;;;;;13.63;84.52;100268.56;4954297;29;20074;-70
2022/06/09 05:22:04;;;;;;;;;;;;;;;13.68;84.29;100273.47;4954810;29;20089;-70
2022/06/09 05:25:09;;;;;;;7.45;1.80;;;;;;;13.72;83.77;100275.81;4954170;29;19937;-70
2022/06/09 05:28:12;;;;;;;7.65;1.60;;;;;;;13.76;83.30;100278.22;4953392;28;20085;-70
2022/06/09 05:31:16;;;;;;;9.02;1.60;;;;;;;13.84;84.64;100278.50;4954126;29;20453;-70
2022/06/09 05:34:19;;;;;;;7.05;1.52;;;;;;;13.94;82.53;100280.41;4954268;29;20070;-70
2022/06/09 05:37:22;;;;;;;8.77;1.88;;;;;;;14.14;82.37;100280.78;4954117;29;20094;-70
2022/06/09 05:47:10;;;;;;;6.68;1.45;;;;;;;14.53;80.40;100271.00;4953970;29;20046;-70
2022/06/09 05:50:13;;;;;;;10.85;2.60;;;;;;;14.46;80.37;100267.13;4953872;29;20034;-70
2022/06/09 05:53:17;;;;;;;11.38;2.05;;;;;;;14.61;80.27;100276.53;4953850;29;20053;-70
2022/06/09 05:56:20;;;;;;;11.57;2.55;;;;;;;14.59;79.97;100281.94;4953695;29;20066;-70
2022/06/09 05:59:23;;;;;;;7.10;1.38;;;;;;;14.72;80.03;100288.94;4953597;29;20050;-71
2022/06/09 06:02:27;;;;;;;7.10;1.25;;;;;;;14.56;80.40;100295.31;4953808;29;20070;-71
2022/06/09 06:08:54;;;;;;;8.05;1.63;;;;;;;14.18;80.64;100301.50;4953688;29;20123;-71
2022/06/09 06:11:57;;;;;;;11.07;1.75;;;;;;;14.25;80.93;100304.53;4953901;29;20183;-72
2022/06/09 06:15:00;;;;;;;7.63;1.75;;;;;;;14.20;80.93;100322.44;4953627;29;20054;-72
2022/06/09 06:18:04;;;;;;;11.07;1.65;;;;;;;14.10;82.12;100330.13;4953643;29;20050;-72
2022/06/09 06:21:08;;;;;;;7.20;1.40;;;;;;;14.15;82.35;100325.38;4953644;29;20047;-72
2022/06/09 06:24:12;;;;;;;13.40;2.85;;;;;;;14.26;82.01;100331.66;4953412;29;20057;-71
2022/06/09 06:27:15;;;;;;;7.35;1.20;;;;;;;14.25;81.44;100336.06;4953435;29;20050;-71
2022/06/09 06:30:20;;;;;;;6.20;1.42;;;;;;;14.19;81.48;100332.09;4953509;29;20042;-70
2022/06/09 06:33:23;;;;;;;9.43;1.50;;;;;;;14.44;81.21;100348.78;4953443;28;20149;-72
2022/06/09 06:36:27;;;;;;;12.50;1.65;;;;;;;14.25;82.36;100358.91;4953434;29;20050;-71
2022/06/09 06:39:30;;;;;;;9.38;1.75;;;;;;;14.35;81.73;100360.78;4955135;28;20592;-72
2022/06/09 06:42:33;;;;;;;7.63;1.52;;;;;;;14.55;80.77;100369.06;4956980;29;20126;-70
2022/06/09 06:45:37;;;;;;;7.57;1.42;;;;;;;14.27;81.01;100368.38;4957070;29;20115;-70
2022/06/09 06:48:41;;;;;;;6.40;1.42;;;;;;;14.43;80.80;100368.97;4957067;29;20062;-70
2022/06/09 06:51:44;;;;;;;8.10;2.03;;;;;;;14.35;80.84;100386.25;4956830;29;20564;-71
2022/06/09 06:54:47;;;;;;;8.45;1.58;;;;;;;14.32;80.42;100392.56;4956899;29;20046;-74
2022/06/09 06:57:51;;;;;;;9.77;1.90;;;;;;;14.22;81.45;100399.41;4956758;29;20054;-70
2022/06/09 07:00:54;;;;;;;7.70;1.23;;;;;;;14.71;79.85;100400.41;4956832;29;20053;-70
2022/06/09 07:03:58;;;;;;;10.73;1.95;;;;;;;14.88;79.42;100402.69;4956722;29;20045;-70
2022/06/09 07:07:01;;;;;;;8.05;1.55;;;;;;;14.91;79.79;100401.63;4956834;29;20062;-71
2022/06/09 07:10:06;;;;;;;6.50;1.83;;;;;;;15.17;78.28;100412.88;4956616;29;20078;-70
2022/06/09 07:13:10;;;;;;;9.70;1.98;;;;;;;15.01;78.98;100418.44;4956582;29;20109;-69
2022/06/09 07:16:14;;;;;;;8.35;1.60;;;;;;;14.94;78.22;100411.94;4956540;29;20050;-69
2022/06/09 07:19:17;;;;;;;8.65;1.92;;;;;;;15.05;77.60;100420.72;4956415;29;20050;-69
2022/06/09 07:22:21;;;;;;;8.50;1.70;;;;;;;14.88;78.79;100423.72;4956316;29;20544;-69
2022/06/09 07:25:26;;;;;;;12.63;1.90;;;;;;;14.73;79.33;100423.03;4956515;29;20054;-69
2022/06/09 07:28:29;;;;;;;10.20;1.98;;;;;;;14.78;78.88;100427.97;4954803;29;20057;-69
2022/06/09 07:31:32;;;;;;;9.82;1.63;;;;;;;14.82;78.26;100432.91;4956096;29;20046;-70
2022/06/09 07:34:36;;;;;;;7.78;1.50;;;;;;;14.72;78.72;100434.50;4954422;29;20057;-70
2022/06/09 07:37:41;;;;;;;15.55;2.35;;;;;;;14.81;79.10;100433.03;4936559;29;20413;-70
2022/06/09 07:40:45;;;;;;;7.60;1.80;;;;;;;15.19;78.50;100443.44;4916503;29;20051;-71
2022/06/09 07:43:50;;;;;;;8.05;1.30;;;;;;;14.83;78.23;100446.91;4925817;29;20050;-70
2022/06/09 07:46:53;;;;;;;10.70;1.80;;;;;;;14.89;78.47;100447.31;4924501;29;20055;-71
2022/06/09 07:49:57;;;;;;;6.97;1.63;;;;;;;14.62;79.18;100452.75;4935854;29;20039;-70
2022/06/09 07:53:00;;;;;;;8.07;1.40;;;;;;;14.64;79.53;100453.50;4936333;29;20119;-70
2022/06/09 07:56:04;;;;;;;7.53;1.63;;;;;;;14.44;80.34;100456.63;4936346;29;20046;-70
2022/06/09 07:59:07;;;;;;;8.23;2.40;;;;;;;14.72;79.89;100465.25;4936208;29;20058;-70
2022/06/09 08:02:12;;;;;;;6.25;1.45;;;;;;;14.44;80.41;100456.63;4936099;29;20086;-70
2022/06/09 08:05:18;;;;;;;8.05;1.60;;;;;;;14.30;82.29;100468.09;4950816;29;20137;-70
2022/06/09 08:08:22;;;;;;;8.55;1.83;;;;;;;14.64;81.33;100465.78;4938361;29;20115;-70
2022/06/09 08:11:30;;;;;;;8.73;1.85;;;;;;;14.68;80.26;100469.91;4935910;29;20525;-70
2022/06/09 08:14:34;;;;;;;7.35;1.90;;;;;;;14.65;80.09;100470.97;4928325;29;20134;-70
2022/06/09 08:17:41;;;;;;;7.78;1.65;;;;;;;14.53;80.54;100476.22;4935889;29;20119;-70
2022/06/09 08:20:45;;;;;;;11.02;2.10;;;;;;;14.93;79.56;100478.69;4940289;29;20051;-70
2022/06/09 08:23:49;;;;;;;9.13;2.08;;;;;;;14.77;80.04;100479.78;4935779;29;20046;-71
2022/06/09 08:26:54;;;;;;;9.48;1.90;;;;;;;14.59;80.47;100486.34;4923765;29;20094;-70
2022/06/09 08:29:58;;;;;;;6.65;1.80;;;;;;;14.71;80.15;100482.84;4935591;29;20094;-70
2022/06/09 08:33:02;;;;;;;9.73;1.90;;;;;;;14.90;79.23;100498.19;4934827;29;20046;-70
2022/06/09 08:36:10;;;;;;;5.72;1.52;;;;;;;14.68;79.70;100496.22;4935449;29;20530;-70
2022/06/09 08:39:14;;;;;;;8.10;1.48;;;;;;;14.70;79.27;100504.00;4945312;29;20094;-70
2022/06/09 08:42:42;;;;;;;9.63;2.22;;;;;;;14.92;78.50;100501.53;4953755;29;20058;-71
2022/06/09 08:45:48;;;;;;;7.25;2.00;;;;;;;15.14;78.27;100507.91;4954768;29;20094;-71
2022/06/09 08:48:56;;;;;;;8.50;1.70;;;;;;;15.01;77.80;100503.53;4953716;29;20118;-71
2022/06/09 08:52:08;;;;;;;8.77;1.73;;;;;;;15.17;77.34;100505.06;4954812;29;20127;-71
2022/06/09 08:55:37;;;;;;;11.57;3.05;;;;;;;15.27;77.03;100504.28;4954257;29;20134;-71
2022/06/09 08:58:47;;;;;;;9.95;1.70;;;;;;;15.31;76.90;100504.91;4953657;29;20425;-70
2022/06/09 09:01:56;;;;;;;8.80;1.88;;;;;;;15.46;75.76;100502.94;4954159;28;20564;-70
2022/06/09 09:05:23;;;;;;;10.43;2.13;;;;;;;15.62;75.56;100507.94;4956220;28;20045;-70
2022/06/09 09:08:27;;;;;;;8.45;2.15;;;;;;;15.50;75.57;100510.50;4973800;28;20114;-70
2022/06/09 09:11:42;;;;;;;6.70;1.98;;;;;;;15.56;76.00;100519.75;4973867;28;20049;-71
2022/06/09 09:14:57;;;;;;;8.98;1.65;;;;;;;15.73;74.83;100514.16;4973739;28;20053;-70
2022/06/09 09:18:19;;;;;;;15.85;2.13;;;;;;;15.81;74.92;100519.66;4973578;28;20069;-71
2022/06/09 09:21:44;;;;;;;10.18;2.28;;;;;;;16.18;73.76;100524.84;4973614;28;20037;-70
2022/06/09 09:25:09;;;;;;;6.22;1.67;;;;;;;16.15;72.93;100524.25;4973383;28;20054;-71
2022/06/09 09:28:23;;;;;;;6.10;1.55;;;;;;;16.13;73.32;100526.13;4973553;28;20474;-70
2022/06/09 09:31:26;;;;;;;11.23;1.98;;;;;;;15.97;72.60;100543.09;4973392;28;20085;-70
2022/06/09 09:34:37;;;;;;;10.70;2.15;;;;;;;15.96;72.66;100533.53;4973125;28;20169;-70
2022/06/09 09:37:46;;;;;;;8.05;1.63;;;;;;;16.45;72.43;100537.72;4972890;28;20596;-69
2022/06/09 09:40:58;;;;;;;7.00;1.77;;;;;;;16.11;72.76;100526.25;4971376;28;20093;-70
2022/06/09 09:44:23;;;;;;;8.20;1.80;;;;;;;16.17;72.28;100536.31;4971671;28;20116;-70
2022/06/09 09:47:30;;;;;;;18.55;2.40;;;;;;;16.03;73.67;100524.19;4972302;28;20061;-71
2022/06/09 09:50:50;;;;;;;10.70;2.03;;;;;;;16.32;73.06;100536.97;4973493;28;20096;-70
2022/06/09 09:53:57;;;;;;;8.80;2.00;;;;;;;16.78;74.19;100545.81;4973187;28;20523;-66
2022/06/09 09:57:21;;;;;;;7.28;2.38;;;;;;;16.93;73.64;100552.53;4973050;28;20528;-66
2022/06/09 10:00:27;;;;;;;6.15;1.77;;;;;;;16.74;73.98;100564.50;4972798;28;20512;-65
2022/06/09 10:10:34;;;;;;;8.23;2.55;;;;;;;16.51;74.32;100565.44;4973026;28;20037;-65
2022/06/09 10:13:38;;;;;;;7.30;2.20;;;;;;;16.61;74.16;100565.56;4973821;28;20062;-65
2022/06/09 10:16:50;;;;;;;10.20;2.47;;;;;;;16.94;72.92;100568.28;4976831;28;20101;-66
2022/06/09 10:19:58;;;;;;;7.32;2.10;;;;;;;16.77;72.78;100574.03;4976742;28;20081;-65
2022/06/09 10:23:09;;;;;;;5.35;2.20;;;;;;;16.89;72.40;100575.72;4976896;28;20232;-65
2022/06/09 10:26:42;;;;;;;13.02;2.60;;;;;;;17.05;72.32;100574.53;4976759;28;20050;-65
2022/06/09 10:30:12;;;;;;;;;;;;;;;16.99;71.96;100585.56;4977062;28;20507;-65
2022/06/09 10:33:32;;;;;;;9.68;2.53;;;;;;;16.90;72.84;100587.97;4976449;28;19921;-65
2022/06/09 10:37:01;;;;;;;5.68;2.15;;;;;;;16.70;72.13;100580.72;4976519;28;20053;-66
2022/06/09 10:40:17;;;;;;;6.57;1.58;;;;;;;16.85;73.03;100584.84;4976291;28;20144;-65
2022/06/09 10:44:01;;;;;;;9.10;2.10;;;;;;;16.99;71.85;100582.94;4976299;28;20045;-66
2022/06/09 10:58:07;;;;;;;6.68;1.13;;;;;;;16.81;66.28;100588.66;4976366;28;20140;-65
2022/06/09 11:01:20;;;;;;;6.55;1.50;;;;;;;16.80;67.02;100597.56;4976121;28;20097;-72
2022/06/09 11:04:24;;;;;;;6.40;1.15;;;;;;;16.67;66.64;100594.16;4976147;28;20119;-65
2022/06/09 11:07:43;;;;;;;5.50;1.80;;;;;;;16.52;67.08;100597.00;4975990;28;20119;-70
2022/06/09 11:11:14;;;;;;;4.90;1.00;;;;;;;16.14;67.58;100604.31;4976355;28;20085;-70
2022/06/09 11:14:43;;;;;;;4.05;1.45;;;;;;;15.78;69.67;100604.25;4975832;28;20077;-70
2022/06/09 11:17:55;;;;;;;5.43;1.20;;;;;;;16.02;71.04;100611.34;4964085;28;20568;-74
2022/06/09 11:21:17;;;;;;;3.33;1.03;;;;;;;15.92;70.51;100600.63;4975750;28;20046;-71
2022/06/09 11:24:36;;;;;;;3.00;1.10;;;;;;;16.40;69.07;100616.41;4975533;28;20078;-71
2022/06/09 11:27:51;;;;;;;7.00;1.20;;;;;;;16.45;68.38;100616.88;4975468;28;20065;-70
2022/06/09 11:31:25;;;;;;;5.28;1.23;;;;;;;16.50;67.63;100612.13;4975820;28;20046;-78
2022/06/09 11:35:14;;;;;;;6.45;1.65;;;;;;;16.63;68.39;100619.94;4975637;28;20432;-76
2022/06/09 11:38:41;;;;;;;8.70;1.50;;;;;;;17.07;67.32;100614.84;4974906;28;20674;-72
2022/06/09 11:42:01;;;;;;;9.18;2.13;;;;;;;17.42;65.88;100609.44;4974743;28;20057;-74
2022/06/09 11:45:25;;;;;;;7.25;1.67;;;;;;;17.53;66.11;100622.66;4975329;28;20122;-75
2022/06/09 11:48:47;;;;;;;4.00;1.35;;;;;;;17.45;67.01;100622.41;4974374;28;20129;-77
2022/06/09 11:51:51;;;;;;;8.48;1.73;;;;;;;17.50;67.15;100624.69;4975418;28;20133;-79
2022/06/09 11:54:55;;;;;;;4.63;1.40;;;;;;;17.05;64.38;100637.94;4975366;28;20117;-74
2022/06/09 11:57:59;;;;;;;8.00;1.95;;;;;;;16.87;66.14;100635.72;4975110;28;20085;-76
2022/06/09 12:01:20;;;;;;;6.85;1.92;;;;;;;16.62;66.84;100641.16;4975384;28;20053;-76
2022/06/09 12:04:52;;;;;;;7.38;1.88;;;;;;;17.00;68.65;100651.47;4974975;28;20061;-66
2022/06/09 12:08:17;;;;;;;9.40;1.55;;;;;;;16.77;66.58;100640.03;4974869;28;20562;-73
2022/06/09 12:11:24;;;;;;;7.65;1.90;;;;;;;16.69;66.62;100653.81;4974187;28;20583;-75
2022/06/09 12:14:37;;;;;;;6.88;2.10;;;;;;;16.64;66.42;100652.47;4974769;28;20412;-76
2022/06/09 12:18:12;;;;;;;6.78;1.35;;;;;;;16.84;64.88;100645.69;4974719;28;20146;-78
2022/06/09 12:21:28;;;;;;;6.18;1.55;;;;;;;16.96;65.78;100647.41;4974915;28;20092;-74
2022/06/09 12:25:00;;;;;;;6.63;1.42;;;;;;;16.91;65.59;100660.97;4974635;28;20061;-74
2022/06/09 12:28:53;;;;;;;7.43;1.58;;;;;;;17.15;66.03;100666.16;4974755;28;20050;-73
2022/06/09 12:32:08;;;;;;;4.07;1.38;;;;;;;16.73;67.55;100670.25;4974330;28;20050;-74
2022/06/09 12:35:19;;;;;;;8.45;1.92;;;;;;;16.64;68.80;100676.22;4974671;28;20457;-71
2022/06/09 12:38:42;;;;;;;6.35;1.83;;;;;;;16.61;69.87;100679.94;4962455;28;20131;-71
2022/06/09 12:41:58;;;;;;;10.07;2.22;;;;;;;16.55;70.05;100676.91;4974232;28;20053;-71
2022/06/09 12:45:12;;;;;;;7.18;1.75;;;;;;;16.79;69.49;100675.09;4974181;28;20074;-70
2022/06/09 12:48:16;;;;;;;10.40;2.00;;;;;;;16.84;69.81;100680.03;4974180;28;20049;-70
2022/06/09 12:51:32;;;;;;;7.20;1.77;;;;;;;17.17;68.28;100684.53;4974382;28;20092;-69
2022/06/09 12:54:40;;;;;;;5.50;1.88;;;;;;;17.24;67.88;100685.75;4974284;28;20579;-71
2022/06/09 12:57:48;;;;;;;5.85;2.25;;;;;;;17.22;68.19;100678.88;4973947;28;20073;-70
2022/06/09 13:00:58;;;;;;;14.27;2.20;;;;;;;17.44;67.53;100687.66;4973868;28;20420;-70
2022/06/09 13:04:05;;;;;;;7.75;1.83;;;;;;;17.73;65.98;100681.88;4973923;28;20049;-71
2022/06/09 13:07:21;;;;;;;6.40;2.38;;;;;;;17.91;64.41;100686.69;4973835;28;20089;-70
2022/06/09 13:10:32;;;;;;;6.85;2.03;;;;;;;17.91;64.31;100689.34;4973756;28;20073;-71
2022/06/09 13:13:48;;;;;;;5.20;1.52;;;;;;;17.86;64.11;100694.97;4973590;28;20054;-71
2022/06/09 13:17:34;;;;;;;7.45;2.20;;;;;;;18.28;61.00;100688.03;4972861;28;20166;-71
2022/06/09 13:20:44;;;;;;;16.85;2.90;;;;;;;18.44;59.93;100676.16;4973504;28;20130;-71
2022/06/09 13:23:51;;;;;;;13.43;2.63;;;;;;;18.67;59.13;100683.03;4973396;28;20177;-70
2022/06/09 13:26:56;;;;;;;11.75;2.05;;;;;;;19.55;56.21;100684.38;4973472;28;20501;-70
2022/06/09 13:30:09;;;;;;;8.10;2.85;;;;;;;19.94;54.85;100688.00;4973505;28;20061;-71
2022/06/09 13:33:47;;;;;;;7.50;1.83;;;;;;;20.33;54.55;100696.03;4973381;28;20058;-70
2022/06/09 13:36:56;;;;;;;9.30;1.95;;;;;;;19.15;57.35;100702.91;4973614;28;20042;-69
2022/06/09 13:40:11;;;;;;;8.20;1.80;;;;;;;18.83;58.69;100701.16;4973188;28;20511;-69
2022/06/09 13:43:29;;;;;;;9.68;2.08;;;;;;;19.14;57.11;100707.34;4973261;28;20042;-69
2022/06/09 13:46:59;;;;;;;7.38;1.83;;;;;;;19.68;56.25;100703.56;4973221;28;20101;-68
2022/06/09 13:50:17;;;;;;;9.32;2.53;;;;;;;20.55;53.22;100710.88;4960755;28;20563;-69
2022/06/09 13:53:44;;;;;;;4.00;1.20;;;;;;;19.94;54.33;100705.72;4973161;28;20523;-68
2022/06/09 13:56:49;;;;;;;7.70;1.65;;;;;;;20.46;53.63;100709.03;4973144;28;20559;-69
2022/06/09 13:59:55;;;;;;;6.85;1.48;;;;;;;20.90;52.61;100691.69;4955710;28;20042;-71
2022/06/09 14:03:06;;;;;;;8.55;1.95;;;;;;;21.78;50.23;100694.03;4967599;28;20189;-70
2022/06/09 14:06:12;;;;;;;7.70;1.98;;;;;;;21.53;50.59;100712.34;4972879;28;20097;-69
2022/06/09 14:09:17;;;;;;;7.40;1.88;;;;;;;21.11;51.93;100699.44;4962866;28;20037;-70
2022/06/09 14:12:20;;;;;;;6.50;1.98;;;;;;;21.86;49.50;100704.78;4942155;28;20054;-72
2022/06/09 14:15:26;;;;;;;10.88;1.88;;;;;;;23.66;46.75;100709.72;4956718;28;20058;-68
2022/06/09 14:18:33;;;;;;;7.57;1.52;;;;;;;23.29;45.02;100714.53;4955463;28;20101;-69
2022/06/09 14:21:37;;;;;;;5.55;1.65;;;;;;;25.22;41.50;100708.09;4967615;28;20672;-78
2022/06/09 14:24:40;;;;;;;12.70;1.50;;;;;;;25.59;39.03;100717.38;4964408;28;20414;-67
2022/06/09 14:27:44;;;;;;;5.53;1.33;;;;;;;26.89;37.20;100712.19;4953513;29;20046;-68
2022/06/09 14:30:47;;;;;;;5.80;1.48;;;;;;;26.50;38.62;100723.94;4953507;29;20054;-67
2022/06/09 14:33:51;;;;;;;6.60;1.58;;;;;;;23.03;43.98;100718.06;4967056;28;20517;-69
2022/06/09 14:36:55;;;;;;;5.72;1.40;;;;;;;20.61;51.14;100736.03;4951679;28;20054;-72
2022/06/09 14:39:59;;;;;;;4.18;1.25;;;;;;;20.13;53.75;100739.44;4952382;28;20468;-71
2022/06/09 14:43:04;;;;;;;5.97;1.60;;;;;;;19.52;55.07;100737.69;4934992;29;20066;-69
2022/06/09 14:46:15;;;;;;;9.18;1.30;;;;;;;19.83;55.81;100746.50;4953716;29;20572;-68
2022/06/09 14:49:21;;;;;;;4.25;1.13;;;;;;;20.35;53.95;100748.97;4951181;29;20046;-67
2022/06/09 14:52:25;;;;;;;5.25;1.20;;;;;;;21.12;51.85;100741.03;4951590;29;20045;-65
2022/06/09 14:55:37;;;;;;;5.05;1.75;;;;;;;21.05;52.14;100745.22;4952038;29;20094;-65
2022/06/09 14:58:40;;;;;;;4.88;1.23;;;;;;;20.86;51.77;100747.91;4953362;29;20069;-65
2022/06/09 15:01:45;;;;;;;5.50;1.65;;;;;;;20.31;54.14;100771.50;4956608;29;20078;-65
2022/06/09 15:04:49;;;;;;;5.38;1.23;;;;;;;19.66;55.83;100774.50;4956399;29;20090;-65
2022/06/09 15:07:53;;;;;;;5.03;1.40;;;;;;;19.47;56.15;100777.03;4956760;29;20054;-65